sensor_id;sensor_type;location;lat;lon;timestamp;pressure;altitude;pressure_sealevel;temperature;humidity
23417;BME280;11881;42.432;25.632;2022-09-16T00:00:20;98466.63;;;22.57;100.00
23417;BME280;11881;42.432;25.632;2022-09-16T00:02:46;98474.53;;;22.47;100.00
23417;BME280;11881;42.432;25.632;2022-09-16T00:05:12;98482.53;;;22.30;100.00
23417;BME280;11881;42.432;25.632;2022-09-16T00:07:37;98468.72;;;22.31;100.00
23417;BME280;11881;42.432;25.632;2022-09-16T00:10:04;98465.44;;;22.29;100.00
23417;BME280;11881;42.432;25.632;2022-09-16T00:12:30;98477.81;;;22.37;100.00
23417;BME280;11881;42.432;25.632;2022-09-16T00:14:55;98471.69;;;22.30;100.00
23417;BME280;11881;42.432;25.632;2022-09-16T00:17:21;98470.16;;;22.34;100.00
23417;BME280;11881;42.432;25.632;2022-09-16T00:19:47;98478.53;;;22.21;100.00
23417;BME280;11881;42.432;25.632;2022-09-16T00:22:13;98487.25;;;22.11;100.00
23417;BME280;11881;42.432;25.632;2022-09-16T00:24:39;98485.94;;;22.14;100.00
23417;BME280;11881;42.432;25.632;2022-09-16T00:27:04;98474.63;;;22.17;100.00
23417;BME280;11881;42.432;25.632;2022-09-16T00:29:30;98470.56;;;22.08;100.00
23417;BME280;11881;42.432;25.632;2022-09-16T00:31:55;98476.22;;;22.06;100.00
23417;BME280;11881;42.432;25.632;2022-09-16T00:34:21;98467.19;;;22.12;100.00
23417;BME280;11881;42.432;25.632;2022-09-16T00:36:46;98470.44;;;22.02;100.00
23417;BME280;11881;42.432;25.632;2022-09-16T00:39:12;98469.91;;;22.12;100.00
23417;BME280;11881;42.432;25.632;2022-09-16T00:41:38;98472.19;;;21.97;100.00
23417;BME280;11881;42.432;25.632;2022-09-16T00:44:06;98475.22;;;21.89;100.00
23417;BME280;11881;42.432;25.632;2022-09-16T00:46:51;98468.88;;;21.95;100.00
23417;BME280;11881;42.432;25.632;2022-09-16T00:49:25;98476.09;;;22.01;100.00
23417;BME280;11881;42.432;25.632;2022-09-16T00:51:57;98467.25;;;21.94;100.00
23417;BME280;11881;42.432;25.632;2022-09-16T00:54:24;98477.38;;;21.87;100.00
23417;BME280;11881;42.432;25.632;2022-09-16T00:56:52;98475.13;;;21.95;100.00
23417;BME280;11881;42.432;25.632;2022-09-16T00:59:30;98464.38;;;21.89;100.00
23417;BME280;11881;42.432;25.632;2022-09-16T01:02:02;98481.25;;;21.91;100.00
23417;BME280;11881;42.432;25.632;2022-09-16T01:04:44;98484.66;;;21.86;100.00
23417;BME280;11881;42.432;25.632;2022-09-16T01:07:10;98487.50;;;21.91;100.00
23417;BME280;11881;42.432;25.632;2022-09-16T01:09:37;98493.56;;;22.05;100.00
23417;BME280;11881;42.432;25.632;2022-09-16T01:12:04;98505.66;;;21.91;100.00
23417;BME280;11881;42.432;25.632;2022-09-16T01:14:29;98494.13;;;21.95;100.00
23417;BME280;11881;42.432;25.632;2022-09-16T01:26:50;98513.50;;;21.69;100.00
23417;BME280;11881;42.432;25.632;2022-09-16T01:32:16;98499.38;;;21.78;100.00
23417;BME280;11881;42.432;25.632;2022-09-16T01:35:00;98505.81;;;21.66;100.00
23417;BME280;11881;42.432;25.632;2022-09-16T01:43:08;98500.97;;;21.68;100.00
23417;BME280;11881;42.432;25.632;2022-09-16T01:48:52;98507.16;;;21.75;100.00
23417;BME280;11881;42.432;25.632;2022-09-16T01:54:05;98514.13;;;21.52;100.00
23417;BME280;11881;42.432;25.632;2022-09-16T01:56:43;98514.84;;;21.60;100.00
23417;BME280;11881;42.432;25.632;2022-09-16T01:59:18;98516.22;;;21.50;100.00
23417;BME280;11881;42.432;25.632;2022-09-16T02:02:03;98509.53;;;21.53;100.00
23417;BME280;11881;42.432;25.632;2022-09-16T02:04:35;98506.91;;;21.76;100.00
23417;BME280;11881;42.432;25.632;2022-09-16T02:07:04;98515.69;;;21.60;100.00
23417;BME280;11881;42.432;25.632;2022-09-16T02:09:34;98509.09;;;21.68;100.00
23417;BME280;11881;42.432;25.632;2022-09-16T02:12:04;98512.97;;;21.60;100.00
23417;BME280;11881;42.432;25.632;2022-09-16T02:14:36;98502.13;;;21.60;100.00
23417;BME280;11881;42.432;25.632;2022-09-16T02:17:06;98508.25;;;21.37;100.00
23417;BME280;11881;42.432;25.632;2022-09-16T02:20:03;98499.66;;;21.59;100.00
23417;BME280;11881;42.432;25.632;2022-09-16T02:22:42;98500.34;;;21.54;100.00
23417;BME280;11881;42.432;25.632;2022-09-16T02:25:10;98494.47;;;21.57;100.00
23417;BME280;11881;42.432;25.632;2022-09-16T02:27:38;98489.94;;;21.51;100.00
23417;BME280;11881;42.432;25.632;2022-09-16T02:30:07;98502.75;;;21.25;100.00
23417;BME280;11881;42.432;25.632;2022-09-16T02:32:37;98504.34;;;21.33;100.00
23417;BME280;11881;42.432;25.632;2022-09-16T02:35:04;98508.72;;;21.34;100.00
23417;BME280;11881;42.432;25.632;2022-09-16T02:37:39;98513.38;;;21.45;100.00
23417;BME280;11881;42.432;25.632;2022-09-16T02:40:13;98512.00;;;21.18;100.00
23417;BME280;11881;42.432;25.632;2022-09-16T02:42:41;98518.25;;;21.18;100.00
23417;BME280;11881;42.432;25.632;2022-09-16T02:45:07;98519.19;;;21.31;100.00
23417;BME280;11881;42.432;25.632;2022-09-16T02:50:52;98508.50;;;21.36;100.00
23417;BME280;11881;42.432;25.632;2022-09-16T02:55:50;98519.53;;;21.52;100.00
23417;BME280;11881;42.432;25.632;2022-09-16T02:58:18;98523.16;;;21.46;100.00
23417;BME280;11881;42.432;25.632;2022-09-16T03:00:47;98531.91;;;21.30;100.00
23417;BME280;11881;42.432;25.632;2022-09-16T03:03:14;98519.47;;;21.22;100.00
23417;BME280;11881;42.432;25.632;2022-09-16T03:08:23;98531.13;;;21.41;100.00
23417;BME280;11881;42.432;25.632;2022-09-16T03:10:51;98523.19;;;21.21;100.00
23417;BME280;11881;42.432;25.632;2022-09-16T03:14:06;98523.00;;;21.41;100.00
23417;BME280;11881;42.432;25.632;2022-09-16T03:19:58;98512.25;;;21.35;100.00
23417;BME280;11881;42.432;25.632;2022-09-16T03:27:17;98518.63;;;21.59;100.00
23417;BME280;11881;42.432;25.632;2022-09-16T03:29:53;98528.16;;;21.61;100.00
23417;BME280;11881;42.432;25.632;2022-09-16T03:32:27;98519.50;;;21.71;100.00
23417;BME280;11881;42.432;25.632;2022-09-16T03:35:07;98517.19;;;21.56;100.00
23417;BME280;11881;42.432;25.632;2022-09-16T03:37:37;98521.94;;;21.61;100.00
23417;BME280;11881;42.432;25.632;2022-09-16T03:40:08;98518.09;;;21.50;100.00
23417;BME280;11881;42.432;25.632;2022-09-16T03:42:38;98525.97;;;21.40;100.00
23417;BME280;11881;42.432;25.632;2022-09-16T03:45:04;98513.38;;;21.45;100.00
23417;BME280;11881;42.432;25.632;2022-09-16T03:47:30;98498.69;;;21.16;100.00
23417;BME280;11881;42.432;25.632;2022-09-16T03:49:56;98507.03;;;21.15;100.00
23417;BME280;11881;42.432;25.632;2022-09-16T03:52:21;98495.00;;;21.11;100.00
23417;BME280;11881;42.432;25.632;2022-09-16T03:54:46;98497.75;;;21.04;100.00
23417;BME280;11881;42.432;25.632;2022-09-16T03:57:12;98491.06;;;21.25;100.00
23417;BME280;11881;42.432;25.632;2022-09-16T03:59:37;98499.56;;;21.10;100.00
23417;BME280;11881;42.432;25.632;2022-09-16T04:02:03;98499.38;;;21.12;100.00
23417;BME280;11881;42.432;25.632;2022-09-16T04:04:28;98508.31;;;21.12;100.00
23417;BME280;11881;42.432;25.632;2022-09-16T04:06:53;98510.94;;;21.19;100.00
23417;BME280;11881;42.432;25.632;2022-09-16T04:09:19;98515.78;;;21.17;100.00
23417;BME280;11881;42.432;25.632;2022-09-16T04:11:44;98520.72;;;21.20;100.00
23417;BME280;11881;42.432;25.632;2022-09-16T04:14:10;98528.50;;;21.16;100.00
23417;BME280;11881;42.432;25.632;2022-09-16T04:16:35;98520.13;;;21.18;100.00
23417;BME280;11881;42.432;25.632;2022-09-16T04:19:01;98528.19;;;21.24;100.00
23417;BME280;11881;42.432;25.632;2022-09-16T04:21:26;98532.19;;;21.40;100.00
23417;BME280;11881;42.432;25.632;2022-09-16T04:23:53;98522.19;;;21.41;100.00
23417;BME280;11881;42.432;25.632;2022-09-16T04:26:19;98532.69;;;21.49;100.00
23417;BME280;11881;42.432;25.632;2022-09-16T04:28:44;98526.59;;;21.54;100.00
23417;BME280;11881;42.432;25.632;2022-09-16T04:31:13;98528.91;;;21.68;100.00
23417;BME280;11881;42.432;25.632;2022-09-16T04:33:40;98527.34;;;21.61;100.00
23417;BME280;11881;42.432;25.632;2022-09-16T04:36:11;98536.16;;;21.56;100.00
23417;BME280;11881;42.432;25.632;2022-09-16T04:38:37;98539.69;;;21.57;100.00
23417;BME280;11881;42.432;25.632;2022-09-16T04:41:09;98540.47;;;21.64;100.00
23417;BME280;11881;42.432;25.632;2022-09-16T04:43:35;98547.38;;;21.60;100.00
23417;BME280;11881;42.432;25.632;2022-09-16T04:46:00;98541.75;;;21.43;100.00
23417;BME280;11881;42.432;25.632;2022-09-16T04:48:27;98543.53;;;21.49;100.00
23417;BME280;11881;42.432;25.632;2022-09-16T04:50:53;98545.00;;;21.51;100.00
23417;BME280;11881;42.432;25.632;2022-09-16T04:53:19;98546.31;;;21.61;100.00
23417;BME280;11881;42.432;25.632;2022-09-16T04:55:46;98546.63;;;21.71;100.00
23417;BME280;11881;42.432;25.632;2022-09-16T04:58:12;98551.88;;;21.66;100.00
23417;BME280;11881;42.432;25.632;2022-09-16T05:00:38;98542.97;;;21.77;100.00
23417;BME280;11881;42.432;25.632;2022-09-16T05:03:04;98535.97;;;21.88;100.00
23417;BME280;11881;42.432;25.632;2022-09-16T05:05:29;98535.47;;;21.91;100.00
23417;BME280;11881;42.432;25.632;2022-09-16T05:07:55;98540.50;;;22.05;100.00
23417;BME280;11881;42.432;25.632;2022-09-16T05:10:20;98540.38;;;22.00;100.00
23417;BME280;11881;42.432;25.632;2022-09-16T05:12:52;98543.75;;;22.26;100.00
23417;BME280;11881;42.432;25.632;2022-09-16T05:15:19;98545.47;;;22.39;100.00
23417;BME280;11881;42.432;25.632;2022-09-16T05:17:44;98542.84;;;22.44;100.00
23417;BME280;11881;42.432;25.632;2022-09-16T05:20:10;98546.53;;;22.49;100.00
23417;BME280;11881;42.432;25.632;2022-09-16T05:22:36;98533.91;;;22.67;100.00
23417;BME280;11881;42.432;25.632;2022-09-16T05:25:02;98521.53;;;22.71;100.00
23417;BME280;11881;42.432;25.632;2022-09-16T05:27:30;98512.44;;;22.77;100.00
23417;BME280;11881;42.432;25.632;2022-09-16T05:29:56;98518.97;;;22.88;100.00
23417;BME280;11881;42.432;25.632;2022-09-16T05:32:21;98522.38;;;22.95;100.00
23417;BME280;11881;42.432;25.632;2022-09-16T05:34:47;98516.59;;;23.03;100.00
23417;BME280;11881;42.432;25.632;2022-09-16T05:37:13;98523.81;;;22.97;100.00
23417;BME280;11881;42.432;25.632;2022-09-16T05:39:39;98513.13;;;22.84;100.00
23417;BME280;11881;42.432;25.632;2022-09-16T05:42:04;98508.09;;;22.99;100.00
23417;BME280;11881;42.432;25.632;2022-09-16T05:44:30;98513.97;;;23.20;100.00
23417;BME280;11881;42.432;25.632;2022-09-16T05:46:56;98503.03;;;23.43;96.85
23417;BME280;11881;42.432;25.632;2022-09-16T05:49:21;98503.81;;;23.67;94.39
23417;BME280;11881;42.432;25.632;2022-09-16T05:51:48;98503.00;;;23.67;94.42
23417;BME280;11881;42.432;25.632;2022-09-16T05:54:15;98496.59;;;23.61;96.50
23417;BME280;11881;42.432;25.632;2022-09-16T05:56:42;98511.50;;;23.58;97.18
23417;BME280;11881;42.432;25.632;2022-09-16T05:59:10;98503.47;;;23.52;100.00
23417;BME280;11881;42.432;25.632;2022-09-16T06:01:36;98508.06;;;23.63;99.68
23417;BME280;11881;42.432;25.632;2022-09-16T06:04:04;98514.44;;;23.69;99.06
23417;BME280;11881;42.432;25.632;2022-09-16T06:09:02;98516.03;;;23.81;99.18
23417;BME280;11881;42.432;25.632;2022-09-16T06:11:28;98511.16;;;23.67;97.46
23417;BME280;11881;42.432;25.632;2022-09-16T06:13:59;98511.72;;;23.69;100.00
23417;BME280;11881;42.432;25.632;2022-09-16T06:16:26;98496.22;;;23.69;99.51
23417;BME280;11881;42.432;25.632;2022-09-16T06:18:53;98494.09;;;23.71;98.80
23417;BME280;11881;42.432;25.632;2022-09-16T06:21:19;98494.00;;;23.66;99.28
23417;BME280;11881;42.432;25.632;2022-09-16T06:23:45;98501.53;;;23.76;99.25
23417;BME280;11881;42.432;25.632;2022-09-16T06:26:14;98510.66;;;23.98;98.94
23417;BME280;11881;42.432;25.632;2022-09-16T06:28:40;98506.81;;;24.28;96.62
23417;BME280;11881;42.432;25.632;2022-09-16T06:31:11;98499.75;;;24.44;97.28
23417;BME280;11881;42.432;25.632;2022-09-16T06:33:37;98492.78;;;24.69;95.34
23417;BME280;11881;42.432;25.632;2022-09-16T06:36:14;98495.09;;;24.94;92.43
23417;BME280;11881;42.432;25.632;2022-09-16T06:38:41;98498.28;;;25.08;91.63
23417;BME280;11881;42.432;25.632;2022-09-16T06:41:09;98502.81;;;25.19;93.09
23417;BME280;11881;42.432;25.632;2022-09-16T06:43:35;98510.78;;;25.26;92.61
23417;BME280;11881;42.432;25.632;2022-09-16T06:46:04;98515.97;;;25.28;92.90
23417;BME280;11881;42.432;25.632;2022-09-16T06:48:32;98514.28;;;25.43;92.63
23417;BME280;11881;42.432;25.632;2022-09-16T06:51:03;98516.31;;;25.53;93.74
23417;BME280;11881;42.432;25.632;2022-09-16T06:53:29;98515.09;;;25.44;92.67
23417;BME280;11881;42.432;25.632;2022-09-16T06:56:05;98525.78;;;25.45;92.35
23417;BME280;11881;42.432;25.632;2022-09-16T06:58:32;98532.28;;;25.66;90.56
23417;BME280;11881;42.432;25.632;2022-09-16T07:01:03;98527.84;;;25.60;91.51
23417;BME280;11881;42.432;25.632;2022-09-16T07:03:28;98525.88;;;25.56;90.15
23417;BME280;11881;42.432;25.632;2022-09-16T07:05:56;98527.47;;;25.73;89.23
23417;BME280;11881;42.432;25.632;2022-09-16T07:08:22;98523.06;;;25.72;87.14
23417;BME280;11881;42.432;25.632;2022-09-16T07:10:55;98521.53;;;25.77;87.07
23417;BME280;11881;42.432;25.632;2022-09-16T07:13:20;98527.16;;;25.92;86.67
23417;BME280;11881;42.432;25.632;2022-09-16T07:15:46;98526.75;;;26.05;86.83
23417;BME280;11881;42.432;25.632;2022-09-16T07:18:11;98524.50;;;26.02;86.50
23417;BME280;11881;42.432;25.632;2022-09-16T07:20:37;98528.16;;;26.13;87.14
23417;BME280;11881;42.432;25.632;2022-09-16T07:23:02;98512.44;;;26.25;88.27
23417;BME280;11881;42.432;25.632;2022-09-16T07:25:27;98517.19;;;26.35;86.71
23417;BME280;11881;42.432;25.632;2022-09-16T07:27:53;98517.75;;;26.37;87.34
23417;BME280;11881;42.432;25.632;2022-09-16T07:30:18;98523.38;;;26.52;85.31
23417;BME280;11881;42.432;25.632;2022-09-16T07:32:44;98517.59;;;26.48;86.14
23417;BME280;11881;42.432;25.632;2022-09-16T07:35:09;98532.94;;;26.55;84.00
23417;BME280;11881;42.432;25.632;2022-09-16T07:37:35;98535.25;;;26.68;83.29
23417;BME280;11881;42.432;25.632;2022-09-16T07:40:00;98524.34;;;26.73;85.37
23417;BME280;11881;42.432;25.632;2022-09-16T07:42:28;98515.06;;;26.74;82.93
23417;BME280;11881;42.432;25.632;2022-09-16T07:44:53;98509.69;;;26.89;80.38
23417;BME280;11881;42.432;25.632;2022-09-16T07:47:18;98507.88;;;27.05;81.85
23417;BME280;11881;42.432;25.632;2022-09-16T07:49:44;98501.72;;;27.20;80.38
23417;BME280;11881;42.432;25.632;2022-09-16T07:52:09;98499.84;;;27.36;80.02
23417;BME280;11881;42.432;25.632;2022-09-16T07:54:35;98498.13;;;27.14;80.78
23417;BME280;11881;42.432;25.632;2022-09-16T07:57:00;98505.28;;;27.20;81.48
23417;BME280;11881;42.432;25.632;2022-09-16T07:59:26;98493.28;;;27.37;82.68
23417;BME280;11881;42.432;25.632;2022-09-16T08:01:51;98488.44;;;27.49;79.96
23417;BME280;11881;42.432;25.632;2022-09-16T08:04:18;98487.91;;;27.62;80.87
23417;BME280;11881;42.432;25.632;2022-09-16T08:06:43;98490.75;;;27.77;77.55
23417;BME280;11881;42.432;25.632;2022-09-16T08:09:09;98494.59;;;27.92;76.64
23417;BME280;11881;42.432;25.632;2022-09-16T08:11:34;98492.69;;;28.02;78.20
23417;BME280;11881;42.432;25.632;2022-09-16T08:14:00;98496.81;;;28.20;77.02
23417;BME280;11881;42.432;25.632;2022-09-16T08:16:26;98498.19;;;28.28;76.25
23417;BME280;11881;42.432;25.632;2022-09-16T08:18:55;98489.97;;;28.28;74.38
23417;BME280;11881;42.432;25.632;2022-09-16T08:21:23;98491.94;;;28.38;76.40
23417;BME280;11881;42.432;25.632;2022-09-16T08:23:49;98481.19;;;28.16;73.30
23417;BME280;11881;42.432;25.632;2022-09-16T08:26:16;98484.81;;;28.42;75.02
23417;BME280;11881;42.432;25.632;2022-09-16T08:28:43;98483.16;;;28.61;75.04
23417;BME280;11881;42.432;25.632;2022-09-16T08:31:09;98481.75;;;28.74;73.31
23417;BME280;11881;42.432;25.632;2022-09-16T08:33:34;98471.59;;;28.74;72.89
23417;BME280;11881;42.432;25.632;2022-09-16T08:38:31;98466.66;;;28.81;72.55
23417;BME280;11881;42.432;25.632;2022-09-16T08:43:45;98470.19;;;29.07;70.23
23417;BME280;11881;42.432;25.632;2022-09-16T08:46:22;98473.22;;;29.06;72.19
23417;BME280;11881;42.432;25.632;2022-09-16T08:51:43;98464.09;;;29.21;68.18
23417;BME280;11881;42.432;25.632;2022-09-16T08:54:23;98461.03;;;29.32;68.93
23417;BME280;11881;42.432;25.632;2022-09-16T08:56:53;98456.13;;;29.24;69.74
23417;BME280;11881;42.432;25.632;2022-09-16T08:59:22;98457.47;;;29.32;70.41
23417;BME280;11881;42.432;25.632;2022-09-16T09:02:09;98456.84;;;29.55;70.28
23417;BME280;11881;42.432;25.632;2022-09-16T09:04:42;98447.50;;;29.56;68.44
23417;BME280;11881;42.432;25.632;2022-09-16T09:09:57;98444.97;;;29.70;67.51
23417;BME280;11881;42.432;25.632;2022-09-16T09:15:18;98435.78;;;29.85;66.21
23417;BME280;11881;42.432;25.632;2022-09-16T09:20:48;98439.31;;;29.90;66.48
23417;BME280;11881;42.432;25.632;2022-09-16T09:24:20;98430.13;;;30.10;69.71
23417;BME280;11881;42.432;25.632;2022-09-16T09:31:55;98417.25;;;30.69;61.91
23417;BME280;11881;42.432;25.632;2022-09-16T09:40:14;98396.94;;;30.89;61.16
23417;BME280;11881;42.432;25.632;2022-09-16T09:45:37;98398.91;;;31.07;59.16
23417;BME280;11881;42.432;25.632;2022-09-16T09:48:20;98401.44;;;31.28;60.76
23417;BME280;11881;42.432;25.632;2022-09-16T09:50:48;98386.00;;;31.50;56.61
23417;BME280;11881;42.432;25.632;2022-09-16T09:55:41;98392.72;;;31.20;57.25
23417;BME280;11881;42.432;25.632;2022-09-16T09:58:22;98381.31;;;31.51;55.95
23417;BME280;11881;42.432;25.632;2022-09-16T10:00:50;98371.41;;;31.69;51.12
23417;BME280;11881;42.432;25.632;2022-09-16T10:03:20;98375.41;;;31.76;56.63
23417;BME280;11881;42.432;25.632;2022-09-16T10:05:46;98377.13;;;31.91;53.54
23417;BME280;11881;42.432;25.632;2022-09-16T10:11:00;98362.66;;;32.32;50.27
23417;BME280;11881;42.432;25.632;2022-09-16T10:13:28;98353.09;;;32.43;46.42
23417;BME280;11881;42.432;25.632;2022-09-16T10:16:18;98346.06;;;32.65;47.18
23417;BME280;11881;42.432;25.632;2022-09-16T10:18:54;98345.25;;;32.78;44.14
23417;BME280;11881;42.432;25.632;2022-09-16T10:21:19;98346.97;;;32.60;45.27
23417;BME280;11881;42.432;25.632;2022-09-16T10:23:55;98348.09;;;32.73;41.42
23417;BME280;11881;42.432;25.632;2022-09-16T10:26:26;98336.56;;;32.84;41.18
23417;BME280;11881;42.432;25.632;2022-09-16T10:29:01;98331.94;;;32.80;42.60
23417;BME280;11881;42.432;25.632;2022-09-16T10:31:45;98330.44;;;32.88;40.63
23417;BME280;11881;42.432;25.632;2022-09-16T10:36:41;98329.50;;;33.06;40.48
23417;BME280;11881;42.432;25.632;2022-09-16T10:39:21;98320.59;;;33.09;40.01
23417;BME280;11881;42.432;25.632;2022-09-16T10:41:48;98325.47;;;33.26;38.68
23417;BME280;11881;42.432;25.632;2022-09-16T10:49:22;98311.16;;;33.24;37.82
23417;BME280;11881;42.432;25.632;2022-09-16T10:51:49;98319.72;;;33.36;37.59
23417;BME280;11881;42.432;25.632;2022-09-16T10:54:26;98313.94;;;33.24;38.99
23417;BME280;11881;42.432;25.632;2022-09-16T10:56:52;98308.19;;;33.20;37.35
23417;BME280;11881;42.432;25.632;2022-09-16T10:59:18;98312.84;;;33.11;38.18
23417;BME280;11881;42.432;25.632;2022-09-16T11:10:03;98297.72;;;32.81;42.81
23417;BME280;11881;42.432;25.632;2022-09-16T11:14:45;98298.75;;;32.57;38.86
23417;BME280;11881;42.432;25.632;2022-09-16T11:22:52;98301.94;;;32.37;43.13
23417;BME280;11881;42.432;25.632;2022-09-16T11:37:59;98276.50;;;31.94;47.42
23417;BME280;11881;42.432;25.632;2022-09-16T11:40:48;98272.03;;;31.98;50.14
23417;BME280;11881;42.432;25.632;2022-09-16T11:51:36;98253.34;;;31.81;49.34
23417;BME280;11881;42.432;25.632;2022-09-16T11:56:42;98250.53;;;31.67;50.09
23417;BME280;11881;42.432;25.632;2022-09-16T11:59:19;98248.88;;;31.85;48.59
23417;BME280;11881;42.432;25.632;2022-09-16T12:02:02;98242.22;;;31.86;47.84
23417;BME280;11881;42.432;25.632;2022-09-16T12:04:47;98240.75;;;31.75;49.55
23417;BME280;11881;42.432;25.632;2022-09-16T12:10:03;98229.63;;;32.13;40.70
23417;BME280;11881;42.432;25.632;2022-09-16T12:12:39;98221.56;;;32.44;42.51
23417;BME280;11881;42.432;25.632;2022-09-16T12:15:21;98215.50;;;32.28;44.78
23417;BME280;11881;42.432;25.632;2022-09-16T12:18:17;98209.47;;;32.12;45.55
23417;BME280;11881;42.432;25.632;2022-09-16T12:21:02;98210.44;;;32.08;45.47
23417;BME280;11881;42.432;25.632;2022-09-16T12:23:33;98202.84;;;31.99;45.24
23417;BME280;11881;42.432;25.632;2022-09-16T12:26:11;98200.19;;;31.94;45.78
23417;BME280;11881;42.432;25.632;2022-09-16T12:34:19;98190.41;;;31.88;39.76
23417;BME280;11881;42.432;25.632;2022-09-16T12:37:19;98191.94;;;31.94;42.62
23417;BME280;11881;42.432;25.632;2022-09-16T12:39:48;98186.91;;;31.83;45.51
23417;BME280;11881;42.432;25.632;2022-09-16T12:50:52;98191.94;;;31.81;45.61
23417;BME280;11881;42.432;25.632;2022-09-16T13:02:15;98195.31;;;31.59;46.78
23417;BME280;11881;42.432;25.632;2022-09-16T13:04:47;98199.19;;;31.58;48.95
23417;BME280;11881;42.432;25.632;2022-09-16T13:07:28;98206.91;;;31.42;50.15
23417;BME280;11881;42.432;25.632;2022-09-16T13:10:05;98212.69;;;31.27;49.32
23417;BME280;11881;42.432;25.632;2022-09-16T13:12:31;98211.56;;;31.09;50.90
23417;BME280;11881;42.432;25.632;2022-09-16T13:15:00;98208.13;;;30.98;49.01
23417;BME280;11881;42.432;25.632;2022-09-16T13:17:44;98217.50;;;30.97;50.51
23417;BME280;11881;42.432;25.632;2022-09-16T13:20:31;98235.03;;;30.82;52.34
23417;BME280;11881;42.432;25.632;2022-09-16T13:23:13;98231.84;;;30.75;51.12
23417;BME280;11881;42.432;25.632;2022-09-16T13:25:49;98235.78;;;30.69;52.34
23417;BME280;11881;42.432;25.632;2022-09-16T13:34:00;98231.16;;;30.40;53.86
23417;BME280;11881;42.432;25.632;2022-09-16T13:41:37;98234.97;;;30.20;53.67
23417;BME280;11881;42.432;25.632;2022-09-16T13:44:39;98231.81;;;30.03;52.72
23417;BME280;11881;42.432;25.632;2022-09-16T13:49:35;98233.19;;;30.06;51.71
23417;BME280;11881;42.432;25.632;2022-09-16T13:52:11;98233.97;;;30.11;50.27
23417;BME280;11881;42.432;25.632;2022-09-16T13:55:03;98236.06;;;30.19;50.90
23417;BME280;11881;42.432;25.632;2022-09-16T14:05:55;98237.25;;;30.13;54.71
23417;BME280;11881;42.432;25.632;2022-09-16T14:08:36;98238.38;;;30.12;53.57
23417;BME280;11881;42.432;25.632;2022-09-16T14:11:15;98234.53;;;30.08;54.23
23417;BME280;11881;42.432;25.632;2022-09-16T14:13:51;98240.97;;;29.99;54.91
23417;BME280;11881;42.432;25.632;2022-09-16T14:18:59;98230.59;;;29.90;53.09
23417;BME280;11881;42.432;25.632;2022-09-16T14:21:27;98233.16;;;29.82;51.90
23417;BME280;11881;42.432;25.632;2022-09-16T14:23:53;98234.22;;;29.86;52.73
23417;BME280;11881;42.432;25.632;2022-09-16T14:26:21;98234.00;;;29.82;52.64
23417;BME280;11881;42.432;25.632;2022-09-16T14:28:47;98236.19;;;29.80;52.86
23417;BME280;11881;42.432;25.632;2022-09-16T14:31:21;98224.06;;;29.86;55.19
23417;BME280;11881;42.432;25.632;2022-09-16T14:33:51;98216.66;;;29.87;53.54
23417;BME280;11881;42.432;25.632;2022-09-16T14:39:02;98219.91;;;29.89;55.01
23417;BME280;11881;42.432;25.632;2022-09-16T14:41:34;98207.00;;;29.89;52.32
23417;BME280;11881;42.432;25.632;2022-09-16T14:44:09;98215.53;;;29.88;53.47
23417;BME280;11881;42.432;25.632;2022-09-16T14:46:45;98211.44;;;29.85;55.19
23417;BME280;11881;42.432;25.632;2022-09-16T14:49:12;98208.81;;;29.75;53.55
23417;BME280;11881;42.432;25.632;2022-09-16T14:51:42;98212.94;;;29.73;55.18
23417;BME280;11881;42.432;25.632;2022-09-16T14:54:15;98220.94;;;29.69;54.48
23417;BME280;11881;42.432;25.632;2022-09-16T14:56:41;98216.38;;;29.59;55.74
23417;BME280;11881;42.432;25.632;2022-09-16T14:59:11;98227.09;;;29.51;55.56
23417;BME280;11881;42.432;25.632;2022-09-16T15:01:39;98227.41;;;29.49;56.57
23417;BME280;11881;42.432;25.632;2022-09-16T15:04:09;98231.28;;;29.43;57.14
23417;BME280;11881;42.432;25.632;2022-09-16T15:06:44;98230.06;;;29.25;56.99
23417;BME280;11881;42.432;25.632;2022-09-16T15:11:58;98244.59;;;29.26;57.26
23417;BME280;11881;42.432;25.632;2022-09-16T15:14:24;98251.97;;;29.30;57.89
23417;BME280;11881;42.432;25.632;2022-09-16T15:16:57;98259.13;;;29.26;57.11
23417;BME280;11881;42.432;25.632;2022-09-16T15:19:27;98265.75;;;29.20;57.85
23417;BME280;11881;42.432;25.632;2022-09-16T15:21:55;98267.13;;;29.23;56.26
23417;BME280;11881;42.432;25.632;2022-09-16T15:24:24;98266.06;;;29.19;58.84
23417;BME280;11881;42.432;25.632;2022-09-16T15:26:52;98261.41;;;29.14;58.47
23417;BME280;11881;42.432;25.632;2022-09-16T15:31:45;98262.63;;;28.98;58.89
23417;BME280;11881;42.432;25.632;2022-09-16T15:34:22;98256.56;;;29.01;60.23
23417;BME280;11881;42.432;25.632;2022-09-16T15:36:55;98269.53;;;28.85;60.48
23417;BME280;11881;42.432;25.632;2022-09-16T15:47:24;98268.22;;;28.72;60.64
23417;BME280;11881;42.432;25.632;2022-09-16T15:50:06;98272.31;;;28.75;61.27
23417;BME280;11881;42.432;25.632;2022-09-16T15:55:28;98263.88;;;28.61;61.33
23417;BME280;11881;42.432;25.632;2022-09-16T15:58:02;98255.97;;;28.54;62.22
23417;BME280;11881;42.432;25.632;2022-09-16T16:03:19;98267.75;;;28.55;62.69
23417;BME280;11881;42.432;25.632;2022-09-16T16:05:52;98253.28;;;28.44;61.99
23417;BME280;11881;42.432;25.632;2022-09-16T16:11:08;98262.34;;;28.34;61.35
23417;BME280;11881;42.432;25.632;2022-09-16T16:13:34;98259.06;;;28.38;61.41
23417;BME280;11881;42.432;25.632;2022-09-16T16:16:00;98261.78;;;28.38;61.74
23417;BME280;11881;42.432;25.632;2022-09-16T16:18:29;98270.56;;;28.34;61.47
23417;BME280;11881;42.432;25.632;2022-09-16T16:20:57;98259.06;;;28.32;60.70